sensor_id;sensor_type;location;lat;lon;timestamp;P1;durP1;ratioP1;P2;durP2;ratioP2
9150;SDS011;4610;50.006;7.490;2022-07-23T00:00:04;8.60;;;5.17;;
9150;SDS011;4610;50.006;7.490;2022-07-23T00:02:32;7.73;;;5.53;;
9150;SDS011;4610;50.006;7.490;2022-07-23T00:04:59;7.47;;;5.47;;
9150;SDS011;4610;50.006;7.490;2022-07-23T00:07:26;7.87;;;5.47;;
9150;SDS011;4610;50.006;7.490;2022-07-23T00:09:54;8.23;;;5.77;;
9150;SDS011;4610;50.006;7.490;2022-07-23T00:12:21;10.60;;;5.77;;
9150;SDS011;4610;50.006;7.490;2022-07-23T00:14:47;7.00;;;5.30;;
9150;SDS011;4610;50.006;7.490;2022-07-23T00:17:14;6.60;;;5.10;;
9150;SDS011;4610;50.006;7.490;2022-07-23T00:19:41;9.63;;;5.50;;
9150;SDS011;4610;50.006;7.490;2022-07-23T00:22:08;9.73;;;5.43;;
9150;SDS011;4610;50.006;7.490;2022-07-23T00:24:34;7.83;;;6.10;;
9150;SDS011;4610;50.006;7.490;2022-07-23T00:27:03;8.07;;;5.60;;
9150;SDS011;4610;50.006;7.490;2022-07-23T00:29:29;7.43;;;5.43;;
9150;SDS011;4610;50.006;7.490;2022-07-23T00:31:56;7.50;;;5.60;;
9150;SDS011;4610;50.006;7.490;2022-07-23T00:34:23;10.83;;;5.87;;
9150;SDS011;4610;50.006;7.490;2022-07-23T00:36:49;9.20;;;6.03;;
9150;SDS011;4610;50.006;7.490;2022-07-23T00:39:18;7.10;;;5.90;;
9150;SDS011;4610;50.006;7.490;2022-07-23T00:41:46;8.40;;;5.77;;
9150;SDS011;4610;50.006;7.490;2022-07-23T00:44:21;8.70;;;6.03;;
9150;SDS011;4610;50.006;7.490;2022-07-23T00:46:50;11.20;;;6.43;;
9150;SDS011;4610;50.006;7.490;2022-07-23T00:49:19;7.83;;;6.03;;
9150;SDS011;4610;50.006;7.490;2022-07-23T00:51:46;9.87;;;6.33;;
9150;SDS011;4610;50.006;7.490;2022-07-23T00:54:14;12.70;;;6.53;;
9150;SDS011;4610;50.006;7.490;2022-07-23T00:56:41;13.70;;;7.20;;
9150;SDS011;4610;50.006;7.490;2022-07-23T00:59:08;10.13;;;6.93;;
9150;SDS011;4610;50.006;7.490;2022-07-23T01:01:36;12.33;;;7.43;;
9150;SDS011;4610;50.006;7.490;2022-07-23T01:04:03;9.20;;;6.77;;
9150;SDS011;4610;50.006;7.490;2022-07-23T01:06:30;10.30;;;7.50;;
9150;SDS011;4610;50.006;7.490;2022-07-23T01:09:02;9.27;;;7.13;;
9150;SDS011;4610;50.006;7.490;2022-07-23T01:11:29;10.87;;;7.80;;
9150;SDS011;4610;50.006;7.490;2022-07-23T01:13:57;14.97;;;7.53;;
9150;SDS011;4610;50.006;7.490;2022-07-23T01:16:24;11.37;;;7.73;;
9150;SDS011;4610;50.006;7.490;2022-07-23T01:18:52;13.90;;;8.13;;
9150;SDS011;4610;50.006;7.490;2022-07-23T01:21:19;12.80;;;8.60;;
9150;SDS011;4610;50.006;7.490;2022-07-23T01:23:47;11.20;;;8.07;;
9150;SDS011;4610;50.006;7.490;2022-07-23T01:26:14;10.40;;;7.60;;
9150;SDS011;4610;50.006;7.490;2022-07-23T01:28:42;15.43;;;9.37;;
9150;SDS011;4610;50.006;7.490;2022-07-23T01:31:09;14.27;;;8.37;;
9150;SDS011;4610;50.006;7.490;2022-07-23T01:33:35;13.27;;;8.70;;
9150;SDS011;4610;50.006;7.490;2022-07-23T01:36:02;13.80;;;8.73;;
9150;SDS011;4610;50.006;7.490;2022-07-23T01:38:29;13.73;;;9.10;;
9150;SDS011;4610;50.006;7.490;2022-07-23T01:40:57;14.23;;;8.87;;
9150;SDS011;4610;50.006;7.490;2022-07-23T01:43:24;17.63;;;9.63;;
9150;SDS011;4610;50.006;7.490;2022-07-23T01:45:51;13.33;;;9.33;;
9150;SDS011;4610;50.006;7.490;2022-07-23T01:48:18;16.53;;;9.17;;
9150;SDS011;4610;50.006;7.490;2022-07-23T01:50:45;13.70;;;8.83;;
9150;SDS011;4610;50.006;7.490;2022-07-23T01:53:13;14.50;;;8.87;;
9150;SDS011;4610;50.006;7.490;2022-07-23T01:55:40;15.00;;;9.30;;
9150;SDS011;4610;50.006;7.490;2022-07-23T01:58:08;13.50;;;9.47;;
9150;SDS011;4610;50.006;7.490;2022-07-23T02:00:35;14.03;;;9.70;;
9150;SDS011;4610;50.006;7.490;2022-07-23T02:03:02;13.33;;;8.87;;
9150;SDS011;4610;50.006;7.490;2022-07-23T02:05:29;14.63;;;9.23;;
9150;SDS011;4610;50.006;7.490;2022-07-23T02:07:57;13.77;;;8.80;;
9150;SDS011;4610;50.006;7.490;2022-07-23T02:10:24;15.33;;;10.20;;
9150;SDS011;4610;50.006;7.490;2022-07-23T02:12:50;13.03;;;9.30;;
9150;SDS011;4610;50.006;7.490;2022-07-23T02:15:19;13.67;;;9.50;;
9150;SDS011;4610;50.006;7.490;2022-07-23T02:17:46;15.63;;;9.97;;
9150;SDS011;4610;50.006;7.490;2022-07-23T02:20:13;17.90;;;10.27;;
9150;SDS011;4610;50.006;7.490;2022-07-23T02:22:40;16.63;;;10.43;;
9150;SDS011;4610;50.006;7.490;2022-07-23T02:25:07;15.90;;;9.83;;
9150;SDS011;4610;50.006;7.490;2022-07-23T02:27:35;17.17;;;10.47;;
9150;SDS011;4610;50.006;7.490;2022-07-23T02:30:02;16.53;;;10.67;;
9150;SDS011;4610;50.006;7.490;2022-07-23T02:32:31;11.73;;;9.07;;
9150;SDS011;4610;50.006;7.490;2022-07-23T02:34:58;13.43;;;9.37;;
9150;SDS011;4610;50.006;7.490;2022-07-23T02:37:25;15.70;;;9.67;;
9150;SDS011;4610;50.006;7.490;2022-07-23T02:39:52;16.57;;;10.50;;
9150;SDS011;4610;50.006;7.490;2022-07-23T02:42:19;15.67;;;9.87;;
9150;SDS011;4610;50.006;7.490;2022-07-23T02:44:48;15.17;;;10.27;;
9150;SDS011;4610;50.006;7.490;2022-07-23T02:47:15;17.00;;;10.60;;
9150;SDS011;4610;50.006;7.490;2022-07-23T02:49:43;18.03;;;10.60;;
9150;SDS011;4610;50.006;7.490;2022-07-23T02:52:10;20.30;;;10.30;;
9150;SDS011;4610;50.006;7.490;2022-07-23T02:54:37;19.33;;;11.47;;
9150;SDS011;4610;50.006;7.490;2022-07-23T02:57:04;15.17;;;10.47;;
9150;SDS011;4610;50.006;7.490;2022-07-23T02:59:31;18.60;;;10.90;;
9150;SDS011;4610;50.006;7.490;2022-07-23T03:01:57;19.47;;;10.23;;
9150;SDS011;4610;50.006;7.490;2022-07-23T03:04:24;19.63;;;10.33;;
9150;SDS011;4610;50.006;7.490;2022-07-23T03:06:52;14.93;;;10.50;;
9150;SDS011;4610;50.006;7.490;2022-07-23T03:09:19;15.47;;;10.50;;
9150;SDS011;4610;50.006;7.490;2022-07-23T03:11:46;19.77;;;11.57;;
9150;SDS011;4610;50.006;7.490;2022-07-23T03:14:12;15.53;;;11.20;;
9150;SDS011;4610;50.006;7.490;2022-07-23T03:16:41;16.63;;;11.10;;
9150;SDS011;4610;50.006;7.490;2022-07-23T03:19:08;19.70;;;11.77;;
9150;SDS011;4610;50.006;7.490;2022-07-23T03:21:34;21.73;;;11.70;;
9150;SDS011;4610;50.006;7.490;2022-07-23T03:24:06;17.43;;;10.90;;
9150;SDS011;4610;50.006;7.490;2022-07-23T03:26:33;16.90;;;10.87;;
9150;SDS011;4610;50.006;7.490;2022-07-23T03:29:00;15.20;;;10.37;;
9150;SDS011;4610;50.006;7.490;2022-07-23T03:31:28;16.73;;;11.20;;
9150;SDS011;4610;50.006;7.490;2022-07-23T03:33:56;16.97;;;10.77;;
9150;SDS011;4610;50.006;7.490;2022-07-23T03:36:22;19.33;;;10.77;;
9150;SDS011;4610;50.006;7.490;2022-07-23T03:38:49;14.97;;;10.60;;
9150;SDS011;4610;50.006;7.490;2022-07-23T03:41:17;18.13;;;11.30;;
9150;SDS011;4610;50.006;7.490;2022-07-23T03:43:44;15.77;;;10.83;;
9150;SDS011;4610;50.006;7.490;2022-07-23T03:46:11;18.27;;;9.97;;
9150;SDS011;4610;50.006;7.490;2022-07-23T03:48:38;17.77;;;10.63;;
9150;SDS011;4610;50.006;7.490;2022-07-23T03:51:05;20.77;;;11.07;;
9150;SDS011;4610;50.006;7.490;2022-07-23T03:53:32;16.17;;;10.27;;
9150;SDS011;4610;50.006;7.490;2022-07-23T03:55:59;15.53;;;10.10;;
9150;SDS011;4610;50.006;7.490;2022-07-23T03:58:27;16.10;;;9.97;;
9150;SDS011;4610;50.006;7.490;2022-07-23T04:00:54;14.70;;;10.03;;
9150;SDS011;4610;50.006;7.490;2022-07-23T04:03:21;14.97;;;10.63;;
9150;SDS011;4610;50.006;7.490;2022-07-23T04:05:47;15.90;;;11.30;;
9150;SDS011;4610;50.006;7.490;2022-07-23T04:08:14;14.60;;;10.37;;
9150;SDS011;4610;50.006;7.490;2022-07-23T04:10:41;16.13;;;10.27;;
9150;SDS011;4610;50.006;7.490;2022-07-23T04:13:08;19.10;;;9.57;;
9150;SDS011;4610;50.006;7.490;2022-07-23T04:15:36;14.73;;;9.97;;
9150;SDS011;4610;50.006;7.490;2022-07-23T04:18:03;15.13;;;9.80;;
9150;SDS011;4610;50.006;7.490;2022-07-23T04:20:30;17.53;;;10.53;;
9150;SDS011;4610;50.006;7.490;2022-07-23T04:22:57;18.57;;;10.77;;
9150;SDS011;4610;50.006;7.490;2022-07-23T04:25:24;19.27;;;10.73;;
9150;SDS011;4610;50.006;7.490;2022-07-23T04:27:50;15.90;;;10.47;;
9150;SDS011;4610;50.006;7.490;2022-07-23T04:30:17;14.57;;;9.80;;
9150;SDS011;4610;50.006;7.490;2022-07-23T04:32:45;19.13;;;10.07;;
9150;SDS011;4610;50.006;7.490;2022-07-23T04:35:12;14.27;;;9.80;;
9150;SDS011;4610;50.006;7.490;2022-07-23T04:37:39;16.20;;;10.07;;
9150;SDS011;4610;50.006;7.490;2022-07-23T04:40:06;16.93;;;10.97;;
9150;SDS011;4610;50.006;7.490;2022-07-23T04:42:33;16.07;;;10.13;;
9150;SDS011;4610;50.006;7.490;2022-07-23T04:45:00;15.00;;;9.87;;
9150;SDS011;4610;50.006;7.490;2022-07-23T04:47:28;15.13;;;9.83;;
9150;SDS011;4610;50.006;7.490;2022-07-23T04:49:57;14.40;;;9.83;;
9150;SDS011;4610;50.006;7.490;2022-07-23T04:52:23;16.63;;;9.37;;
9150;SDS011;4610;50.006;7.490;2022-07-23T04:54:50;12.93;;;9.33;;
9150;SDS011;4610;50.006;7.490;2022-07-23T04:57:17;12.97;;;9.50;;
9150;SDS011;4610;50.006;7.490;2022-07-23T04:59:44;11.93;;;8.83;;
9150;SDS011;4610;50.006;7.490;2022-07-23T05:02:11;13.33;;;8.60;;
9150;SDS011;4610;50.006;7.490;2022-07-23T05:04:37;13.20;;;9.20;;
9150;SDS011;4610;50.006;7.490;2022-07-23T05:07:06;15.33;;;9.83;;
9150;SDS011;4610;50.006;7.490;2022-07-23T05:09:32;13.43;;;9.73;;
9150;SDS011;4610;50.006;7.490;2022-07-23T05:11:59;15.03;;;9.27;;
9150;SDS011;4610;50.006;7.490;2022-07-23T05:14:26;13.23;;;9.50;;
9150;SDS011;4610;50.006;7.490;2022-07-23T05:16:53;12.67;;;9.30;;
9150;SDS011;4610;50.006;7.490;2022-07-23T05:19:20;14.37;;;9.40;;
9150;SDS011;4610;50.006;7.490;2022-07-23T05:21:47;13.53;;;9.20;;
9150;SDS011;4610;50.006;7.490;2022-07-23T05:24:15;13.10;;;9.70;;
9150;SDS011;4610;50.006;7.490;2022-07-23T05:26:42;13.90;;;8.90;;
9150;SDS011;4610;50.006;7.490;2022-07-23T05:29:09;12.40;;;8.43;;
9150;SDS011;4610;50.006;7.490;2022-07-23T05:31:35;11.87;;;8.17;;
9150;SDS011;4610;50.006;7.490;2022-07-23T05:34:02;12.18;;;8.07;;
9150;SDS011;4610;50.006;7.490;2022-07-23T05:36:30;10.47;;;8.07;;
9150;SDS011;4610;50.006;7.490;2022-07-23T05:38:57;12.67;;;8.37;;
9150;SDS011;4610;50.006;7.490;2022-07-23T05:41:26;12.53;;;8.17;;
9150;SDS011;4610;50.006;7.490;2022-07-23T05:43:53;13.73;;;8.27;;
9150;SDS011;4610;50.006;7.490;2022-07-23T05:46:20;13.07;;;8.67;;
9150;SDS011;4610;50.006;7.490;2022-07-23T05:48:46;10.47;;;7.63;;
9150;SDS011;4610;50.006;7.490;2022-07-23T05:51:18;11.00;;;7.60;;
9150;SDS011;4610;50.006;7.490;2022-07-23T05:53:45;14.17;;;7.93;;
9150;SDS011;4610;50.006;7.490;2022-07-23T05:56:12;10.00;;;7.50;;
9150;SDS011;4610;50.006;7.490;2022-07-23T05:58:40;11.33;;;7.73;;
9150;SDS011;4610;50.006;7.490;2022-07-23T06:01:07;10.33;;;6.97;;
9150;SDS011;4610;50.006;7.490;2022-07-23T06:03:36;9.63;;;7.60;;
9150;SDS011;4610;50.006;7.490;2022-07-23T06:06:04;14.67;;;8.10;;
9150;SDS011;4610;50.006;7.490;2022-07-23T06:08:31;13.20;;;8.10;;
9150;SDS011;4610;50.006;7.490;2022-07-23T06:10:58;12.33;;;8.23;;
9150;SDS011;4610;50.006;7.490;2022-07-23T06:13:24;10.77;;;7.63;;
9150;SDS011;4610;50.006;7.490;2022-07-23T06:15:53;13.00;;;8.07;;
9150;SDS011;4610;50.006;7.490;2022-07-23T06:18:19;12.80;;;7.20;;
9150;SDS011;4610;50.006;7.490;2022-07-23T06:20:46;11.20;;;7.53;;
9150;SDS011;4610;50.006;7.490;2022-07-23T06:23:13;10.47;;;6.77;;
9150;SDS011;4610;50.006;7.490;2022-07-23T06:25:40;9.63;;;6.97;;
9150;SDS011;4610;50.006;7.490;2022-07-23T06:28:06;9.73;;;6.57;;
9150;SDS011;4610;50.006;7.490;2022-07-23T06:30:33;9.03;;;6.40;;
9150;SDS011;4610;50.006;7.490;2022-07-23T06:33:01;9.77;;;7.33;;
9150;SDS011;4610;50.006;7.490;2022-07-23T06:35:28;8.40;;;6.20;;
9150;SDS011;4610;50.006;7.490;2022-07-23T06:37:55;10.83;;;6.70;;
9150;SDS011;4610;50.006;7.490;2022-07-23T06:40:22;9.90;;;6.43;;
9150;SDS011;4610;50.006;7.490;2022-07-23T06:42:49;8.23;;;6.47;;
9150;SDS011;4610;50.006;7.490;2022-07-23T06:45:16;10.23;;;6.37;;
9150;SDS011;4610;50.006;7.490;2022-07-23T06:47:43;9.13;;;6.27;;
9150;SDS011;4610;50.006;7.490;2022-07-23T06:50:11;8.30;;;6.13;;
9150;SDS011;4610;50.006;7.490;2022-07-23T06:52:37;9.40;;;5.80;;
9150;SDS011;4610;50.006;7.490;2022-07-23T06:55:04;8.00;;;5.60;;
9150;SDS011;4610;50.006;7.490;2022-07-23T06:57:32;7.03;;;5.27;;
9150;SDS011;4610;50.006;7.490;2022-07-23T06:59:58;8.33;;;5.40;;
9150;SDS011;4610;50.006;7.490;2022-07-23T07:02:25;7.53;;;5.33;;
9150;SDS011;4610;50.006;7.490;2022-07-23T07:04:52;7.17;;;5.40;;
9150;SDS011;4610;50.006;7.490;2022-07-23T07:07:20;6.70;;;5.20;;
9150;SDS011;4610;50.006;7.490;2022-07-23T07:09:47;8.43;;;5.37;;
9150;SDS011;4610;50.006;7.490;2022-07-23T07:12:14;6.57;;;5.10;;
9150;SDS011;4610;50.006;7.490;2022-07-23T07:14:40;9.07;;;5.10;;
9150;SDS011;4610;50.006;7.490;2022-07-23T07:17:07;7.30;;;4.60;;
9150;SDS011;4610;50.006;7.490;2022-07-23T07:19:35;5.90;;;4.40;;
9150;SDS011;4610;50.006;7.490;2022-07-23T07:22:02;5.90;;;4.20;;
9150;SDS011;4610;50.006;7.490;2022-07-23T07:24:30;6.73;;;4.73;;
9150;SDS011;4610;50.006;7.490;2022-07-23T07:26:57;12.20;;;4.80;;
9150;SDS011;4610;50.006;7.490;2022-07-23T07:29:24;6.80;;;4.70;;
9150;SDS011;4610;50.006;7.490;2022-07-23T07:31:50;5.77;;;4.33;;
9150;SDS011;4610;50.006;7.490;2022-07-23T07:34:17;6.07;;;4.70;;
9150;SDS011;4610;50.006;7.490;2022-07-23T07:36:44;6.33;;;4.10;;
9150;SDS011;4610;50.006;7.490;2022-07-23T07:39:11;5.90;;;3.97;;
9150;SDS011;4610;50.006;7.490;2022-07-23T07:41:39;5.43;;;4.07;;
9150;SDS011;4610;50.006;7.490;2022-07-23T07:44:05;5.40;;;4.00;;
9150;SDS011;4610;50.006;7.490;2022-07-23T07:46:32;5.70;;;4.27;;
9150;SDS011;4610;50.006;7.490;2022-07-23T07:48:59;6.53;;;4.33;;
9150;SDS011;4610;50.006;7.490;2022-07-23T07:51:26;10.57;;;3.93;;
9150;SDS011;4610;50.006;7.490;2022-07-23T07:53:53;4.20;;;3.80;;
9150;SDS011;4610;50.006;7.490;2022-07-23T07:56:20;5.33;;;4.00;;
9150;SDS011;4610;50.006;7.490;2022-07-23T07:58:48;7.27;;;4.20;;
9150;SDS011;4610;50.006;7.490;2022-07-23T08:01:15;7.10;;;4.33;;
9150;SDS011;4610;50.006;7.490;2022-07-23T08:03:44;8.90;;;4.27;;
9150;SDS011;4610;50.006;7.490;2022-07-23T08:06:11;5.57;;;4.07;;
9150;SDS011;4610;50.006;7.490;2022-07-23T08:08:37;7.83;;;3.70;;
9150;SDS011;4610;50.006;7.490;2022-07-23T08:11:04;5.07;;;3.90;;
9150;SDS011;4610;50.006;7.490;2022-07-23T08:13:31;4.73;;;3.60;;
9150;SDS011;4610;50.006;7.490;2022-07-23T08:15:59;18.47;;;4.70;;
9150;SDS011;4610;50.006;7.490;2022-07-23T08:18:26;9.67;;;4.13;;
9150;SDS011;4610;50.006;7.490;2022-07-23T08:20:53;14.77;;;4.67;;
9150;SDS011;4610;50.006;7.490;2022-07-23T08:23:19;5.93;;;3.77;;
9150;SDS011;4610;50.006;7.490;2022-07-23T08:25:46;5.17;;;4.00;;
9150;SDS011;4610;50.006;7.490;2022-07-23T08:28:14;5.37;;;3.93;;
9150;SDS011;4610;50.006;7.490;2022-07-23T08:30:41;7.37;;;4.53;;
9150;SDS011;4610;50.006;7.490;2022-07-23T08:33:11;6.03;;;3.97;;
9150;SDS011;4610;50.006;7.490;2022-07-23T08:35:40;4.53;;;3.40;;
9150;SDS011;4610;50.006;7.490;2022-07-23T08:38:10;5.90;;;3.53;;
9150;SDS011;4610;50.006;7.490;2022-07-23T08:40:39;5.27;;;3.73;;
9150;SDS011;4610;50.006;7.490;2022-07-23T08:43:07;6.87;;;4.37;;
9150;SDS011;4610;50.006;7.490;2022-07-23T08:45:35;7.00;;;4.27;;
9150;SDS011;4610;50.006;7.490;2022-07-23T08:48:04;5.90;;;4.00;;
9150;SDS011;4610;50.006;7.490;2022-07-23T08:50:35;6.10;;;3.47;;
9150;SDS011;4610;50.006;7.490;2022-07-23T08:53:04;8.60;;;4.30;;
9150;SDS011;4610;50.006;7.490;2022-07-23T08:55:32;5.53;;;4.10;;
9150;SDS011;4610;50.006;7.490;2022-07-23T08:57:59;4.67;;;3.63;;
9150;SDS011;4610;50.006;7.490;2022-07-23T09:00:26;4.63;;;3.80;;
9150;SDS011;4610;50.006;7.490;2022-07-23T09:02:53;5.07;;;3.47;;
9150;SDS011;4610;50.006;7.490;2022-07-23T09:05:20;5.20;;;3.77;;
9150;SDS011;4610;50.006;7.490;2022-07-23T09:10:46;5.73;;;3.43;;
9150;SDS011;4610;50.006;7.490;2022-07-23T09:13:25;4.93;;;4.20;;
9150;SDS011;4610;50.006;7.490;2022-07-23T09:15:57;8.43;;;4.23;;
9150;SDS011;4610;50.006;7.490;2022-07-23T09:18:33;5.53;;;4.07;;
9150;SDS011;4610;50.006;7.490;2022-07-23T09:23:51;7.10;;;3.70;;
9150;SDS011;4610;50.006;7.490;2022-07-23T09:26:23;6.50;;;4.17;;
9150;SDS011;4610;50.006;7.490;2022-07-23T09:28:59;5.10;;;3.83;;
9150;SDS011;4610;50.006;7.490;2022-07-23T09:31:31;5.00;;;3.87;;
9150;SDS011;4610;50.006;7.490;2022-07-23T09:34:10;5.23;;;3.80;;
9150;SDS011;4610;50.006;7.490;2022-07-23T09:36:40;6.23;;;3.80;;
9150;SDS011;4610;50.006;7.490;2022-07-23T09:39:09;5.33;;;3.83;;
9150;SDS011;4610;50.006;7.490;2022-07-23T09:41:39;4.47;;;3.47;;
9150;SDS011;4610;50.006;7.490;2022-07-23T09:44:09;5.67;;;3.80;;
9150;SDS011;4610;50.006;7.490;2022-07-23T09:46:37;5.17;;;3.90;;
9150;SDS011;4610;50.006;7.490;2022-07-23T09:49:15;4.57;;;3.50;;
9150;SDS011;4610;50.006;7.490;2022-07-23T09:51:44;6.07;;;3.27;;
9150;SDS011;4610;50.006;7.490;2022-07-23T09:54:21;5.90;;;3.20;;
9150;SDS011;4610;50.006;7.490;2022-07-23T09:56:59;4.00;;;3.33;;
9150;SDS011;4610;50.006;7.490;2022-07-23T09:59:30;4.27;;;3.33;;
9150;SDS011;4610;50.006;7.490;2022-07-23T10:01:59;3.97;;;3.17;;
9150;SDS011;4610;50.006;7.490;2022-07-23T10:04:27;5.53;;;3.40;;
9150;SDS011;4610;50.006;7.490;2022-07-23T10:06:56;3.93;;;3.47;;
9150;SDS011;4610;50.006;7.490;2022-07-23T10:09:27;6.77;;;3.50;;
9150;SDS011;4610;50.006;7.490;2022-07-23T10:11:55;5.07;;;3.43;;
9150;SDS011;4610;50.006;7.490;2022-07-23T10:14:27;10.73;;;3.60;;
9150;SDS011;4610;50.006;7.490;2022-07-23T10:16:57;3.87;;;3.07;;
9150;SDS011;4610;50.006;7.490;2022-07-23T10:19:25;5.90;;;3.63;;
9150;SDS011;4610;50.006;7.490;2022-07-23T10:21:53;4.47;;;3.23;;
9150;SDS011;4610;50.006;7.490;2022-07-23T10:24:26;4.63;;;3.33;;
9150;SDS011;4610;50.006;7.490;2022-07-23T10:27:05;5.53;;;3.60;;
9150;SDS011;4610;50.006;7.490;2022-07-23T10:29:46;5.63;;;3.70;;
9150;SDS011;4610;50.006;7.490;2022-07-23T10:35:07;5.00;;;3.53;;
9150;SDS011;4610;50.006;7.490;2022-07-23T10:37:40;5.90;;;3.70;;
9150;SDS011;4610;50.006;7.490;2022-07-23T10:40:12;4.47;;;3.87;;
9150;SDS011;4610;50.006;7.490;2022-07-23T10:42:42;6.97;;;3.70;;
9150;SDS011;4610;50.006;7.490;2022-07-23T10:45:22;4.10;;;3.33;;
9150;SDS011;4610;50.006;7.490;2022-07-23T10:48:11;4.57;;;3.53;;
9150;SDS011;4610;50.006;7.490;2022-07-23T10:50:40;4.27;;;3.87;;
9150;SDS011;4610;50.006;7.490;2022-07-23T10:53:09;6.83;;;3.80;;
9150;SDS011;4610;50.006;7.490;2022-07-23T10:55:40;5.37;;;3.63;;
9150;SDS011;4610;50.006;7.490;2022-07-23T10:58:09;6.87;;;3.70;;
9150;SDS011;4610;50.006;7.490;2022-07-23T11:00:36;5.67;;;3.93;;
9150;SDS011;4610;50.006;7.490;2022-07-23T11:03:04;6.03;;;3.60;;
9150;SDS011;4610;50.006;7.490;2022-07-23T11:05:42;5.50;;;3.77;;
9150;SDS011;4610;50.006;7.490;2022-07-23T11:08:12;5.43;;;4.70;;
9150;SDS011;4610;50.006;7.490;2022-07-23T11:10:47;8.80;;;4.50;;
9150;SDS011;4610;50.006;7.490;2022-07-23T11:16:17;6.03;;;4.73;;
9150;SDS011;4610;50.006;7.490;2022-07-23T11:18:59;5.27;;;3.80;;
9150;SDS011;4610;50.006;7.490;2022-07-23T11:21:51;7.03;;;4.60;;
9150;SDS011;4610;50.006;7.490;2022-07-23T11:24:19;6.10;;;3.90;;
9150;SDS011;4610;50.006;7.490;2022-07-23T11:29:42;4.90;;;4.13;;
9150;SDS011;4610;50.006;7.490;2022-07-23T11:35:17;7.10;;;4.40;;
9150;SDS011;4610;50.006;7.490;2022-07-23T11:37:46;4.63;;;4.13;;
9150;SDS011;4610;50.006;7.490;2022-07-23T11:40:14;5.53;;;4.50;;
9150;SDS011;4610;50.006;7.490;2022-07-23T11:42:54;4.57;;;4.17;;
9150;SDS011;4610;50.006;7.490;2022-07-23T11:45:22;4.77;;;4.20;;
9150;SDS011;4610;50.006;7.490;2022-07-23T11:47:50;4.67;;;3.80;;
9150;SDS011;4610;50.006;7.490;2022-07-23T11:50:17;7.97;;;4.73;;
9150;SDS011;4610;50.006;7.490;2022-07-23T11:52:44;5.77;;;4.07;;
9150;SDS011;4610;50.006;7.490;2022-07-23T11:55:11;4.87;;;4.37;;
9150;SDS011;4610;50.006;7.490;2022-07-23T11:57:41;5.83;;;4.63;;
9150;SDS011;4610;50.006;7.490;2022-07-23T12:00:10;6.13;;;4.53;;
9150;SDS011;4610;50.006;7.490;2022-07-23T12:02:39;5.13;;;4.63;;
9150;SDS011;4610;50.006;7.490;2022-07-23T12:05:10;5.53;;;4.60;;
9150;SDS011;4610;50.006;7.490;2022-07-23T12:07:39;6.40;;;4.17;;
9150;SDS011;4610;50.006;7.490;2022-07-23T12:10:10;5.67;;;4.47;;
9150;SDS011;4610;50.006;7.490;2022-07-23T12:12:40;5.67;;;4.20;;
9150;SDS011;4610;50.006;7.490;2022-07-23T12:15:11;5.97;;;4.10;;
9150;SDS011;4610;50.006;7.490;2022-07-23T12:17:40;4.77;;;4.07;;
9150;SDS011;4610;50.006;7.490;2022-07-23T12:20:08;9.27;;;4.80;;
9150;SDS011;4610;50.006;7.490;2022-07-23T12:22:39;5.37;;;4.20;;
9150;SDS011;4610;50.006;7.490;2022-07-23T12:25:08;5.47;;;4.27;;
9150;SDS011;4610;50.006;7.490;2022-07-23T12:27:36;4.27;;;3.87;;
9150;SDS011;4610;50.006;7.490;2022-07-23T12:30:18;6.33;;;4.40;;
9150;SDS011;4610;50.006;7.490;2022-07-23T12:32:47;11.47;;;4.87;;
9150;SDS011;4610;50.006;7.490;2022-07-23T12:35:15;8.33;;;5.10;;
9150;SDS011;4610;50.006;7.490;2022-07-23T12:37:44;6.70;;;4.70;;
9150;SDS011;4610;50.006;7.490;2022-07-23T12:40:19;9.10;;;3.63;;
9150;SDS011;4610;50.006;7.490;2022-07-23T12:42:47;6.27;;;4.40;;
9150;SDS011;4610;50.006;7.490;2022-07-23T12:45:15;7.77;;;4.70;;
9150;SDS011;4610;50.006;7.490;2022-07-23T12:47:53;5.43;;;4.70;;
9150;SDS011;4610;50.006;7.490;2022-07-23T12:50:33;6.07;;;4.30;;
9150;SDS011;4610;50.006;7.490;2022-07-23T12:53:10;8.37;;;4.33;;
9150;SDS011;4610;50.006;7.490;2022-07-23T12:55:38;11.33;;;4.00;;
9150;SDS011;4610;50.006;7.490;2022-07-23T12:58:07;4.17;;;3.60;;
9150;SDS011;4610;50.006;7.490;2022-07-23T13:03:35;5.17;;;3.97;;
9150;SDS011;4610;50.006;7.490;2022-07-23T13:06:04;5.27;;;4.00;;
9150;SDS011;4610;50.006;7.490;2022-07-23T13:08:35;6.20;;;3.87;;
9150;SDS011;4610;50.006;7.490;2022-07-23T13:11:03;6.30;;;3.80;;
9150;SDS011;4610;50.006;7.490;2022-07-23T13:13:31;5.57;;;3.67;;
9150;SDS011;4610;50.006;7.490;2022-07-23T13:15:59;5.23;;;3.70;;
9150;SDS011;4610;50.006;7.490;2022-07-23T13:18:27;5.43;;;3.90;;
9150;SDS011;4610;50.006;7.490;2022-07-23T13:20:56;4.20;;;3.73;;
9150;SDS011;4610;50.006;7.490;2022-07-23T13:23:23;4.70;;;3.70;;
9150;SDS011;4610;50.006;7.490;2022-07-23T13:25:50;5.23;;;4.33;;
9150;SDS011;4610;50.006;7.490;2022-07-23T13:28:18;9.80;;;4.87;;
9150;SDS011;4610;50.006;7.490;2022-07-23T13:30:46;7.67;;;5.23;;
9150;SDS011;4610;50.006;7.490;2022-07-23T13:33:14;5.10;;;4.07;;
9150;SDS011;4610;50.006;7.490;2022-07-23T13:35:41;7.00;;;5.10;;
9150;SDS011;4610;50.006;7.490;2022-07-23T13:38:10;6.17;;;3.57;;
9150;SDS011;4610;50.006;7.490;2022-07-23T13:40:37;5.23;;;3.90;;
9150;SDS011;4610;50.006;7.490;2022-07-23T13:43:07;6.17;;;4.50;;
9150;SDS011;4610;50.006;7.490;2022-07-23T13:45:34;6.50;;;4.03;;
9150;SDS011;4610;50.006;7.490;2022-07-23T13:48:02;9.57;;;5.53;;
9150;SDS011;4610;50.006;7.490;2022-07-23T13:50:29;5.50;;;4.57;;
9150;SDS011;4610;50.006;7.490;2022-07-23T13:52:56;6.03;;;4.10;;
9150;SDS011;4610;50.006;7.490;2022-07-23T13:55:27;4.30;;;3.90;;
9150;SDS011;4610;50.006;7.490;2022-07-23T13:57:54;4.43;;;3.60;;
9150;SDS011;4610;50.006;7.490;2022-07-23T14:00:21;3.63;;;3.33;;
9150;SDS011;4610;50.006;7.490;2022-07-23T14:02:48;4.77;;;3.20;;
9150;SDS011;4610;50.006;7.490;2022-07-23T14:05:15;5.93;;;3.30;;
9150;SDS011;4610;50.006;7.490;2022-07-23T14:07:42;4.30;;;3.57;;
9150;SDS011;4610;50.006;7.490;2022-07-23T14:10:09;4.93;;;3.20;;
9150;SDS011;4610;50.006;7.490;2022-07-23T14:12:38;3.70;;;3.30;;
9150;SDS011;4610;50.006;7.490;2022-07-23T14:15:05;5.37;;;3.10;;
9150;SDS011;4610;50.006;7.490;2022-07-23T14:17:33;4.43;;;3.10;;
9150;SDS011;4610;50.006;7.490;2022-07-23T14:20:02;6.40;;;3.17;;
9150;SDS011;4610;50.006;7.490;2022-07-23T14:22:29;3.90;;;3.07;;
9150;SDS011;4610;50.006;7.490;2022-07-23T14:24:56;7.43;;;3.20;;
9150;SDS011;4610;50.006;7.490;2022-07-23T14:27:23;5.23;;;3.07;;
9150;SDS011;4610;50.006;7.490;2022-07-23T14:29:52;7.23;;;3.60;;
9150;SDS011;4610;50.006;7.490;2022-07-23T14:32:19;5.43;;;3.60;;
9150;SDS011;4610;50.006;7.490;2022-07-23T14:34:46;4.10;;;3.70;;
9150;SDS011;4610;50.006;7.490;2022-07-23T14:37:14;4.63;;;4.00;;
9150;SDS011;4610;50.006;7.490;2022-07-23T14:39:41;5.63;;;3.40;;
9150;SDS011;4610;50.006;7.490;2022-07-23T14:42:09;5.70;;;4.13;;
9150;SDS011;4610;50.006;7.490;2022-07-23T14:44:36;5.57;;;3.63;;
9150;SDS011;4610;50.006;7.490;2022-07-23T14:47:05;4.43;;;2.70;;
9150;SDS011;4610;50.006;7.490;2022-07-23T14:49:32;6.50;;;3.60;;
9150;SDS011;4610;50.006;7.490;2022-07-23T14:51:59;6.70;;;3.50;;
9150;SDS011;4610;50.006;7.490;2022-07-23T14:54:28;5.30;;;3.27;;
9150;SDS011;4610;50.006;7.490;2022-07-23T14:56:56;5.57;;;3.57;;
9150;SDS011;4610;50.006;7.490;2022-07-23T14:59:24;5.83;;;3.30;;
9150;SDS011;4610;50.006;7.490;2022-07-23T15:01:51;7.63;;;3.30;;
9150;SDS011;4610;50.006;7.490;2022-07-23T15:04:20;4.27;;;3.50;;
9150;SDS011;4610;50.006;7.490;2022-07-23T15:06:47;13.07;;;3.87;;
9150;SDS011;4610;50.006;7.490;2022-07-23T15:09:14;6.13;;;3.30;;
9150;SDS011;4610;50.006;7.490;2022-07-23T15:11:41;4.07;;;3.23;;
9150;SDS011;4610;50.006;7.490;2022-07-23T15:14:08;5.13;;;3.37;;
9150;SDS011;4610;50.006;7.490;2022-07-23T15:16:35;3.80;;;3.40;;
9150;SDS011;4610;50.006;7.490;2022-07-23T15:19:03;5.20;;;3.30;;
9150;SDS011;4610;50.006;7.490;2022-07-23T15:21:32;5.57;;;3.23;;
9150;SDS011;4610;50.006;7.490;2022-07-23T15:23:59;4.63;;;3.10;;
9150;SDS011;4610;50.006;7.490;2022-07-23T15:26:26;4.87;;;3.23;;
9150;SDS011;4610;50.006;7.490;2022-07-23T15:28:53;4.50;;;3.43;;
9150;SDS011;4610;50.006;7.490;2022-07-23T15:31:20;10.70;;;4.03;;
9150;SDS011;4610;50.006;7.490;2022-07-23T15:33:46;5.97;;;3.40;;